createdAt,value
2022-08-16T00:04:13.917Z,2.47
2022-08-16T00:09:15.730Z,2.13
2022-08-16T00:14:18.817Z,2.50
2022-08-16T00:19:28.265Z,2.40
2022-08-16T00:24:32.243Z,2.63
2022-08-16T00:29:34.153Z,2.55
2022-08-16T00:34:43.392Z,2.30
2022-08-16T00:39:57.370Z,2.70
2022-08-16T00:45:25.194Z,2.72
2022-08-16T00:50:35.845Z,2.33
2022-08-16T00:55:40.452Z,3.00
2022-08-16T01:00:41.895Z,2.70
2022-08-16T01:05:43.873Z,2.88
2022-08-16T01:10:45.389Z,2.25
2022-08-16T01:16:10.238Z,3.37
2022-08-16T01:21:23.329Z,2.63
2022-08-16T01:26:34.478Z,2.70
2022-08-16T01:31:42.422Z,3.00
2022-08-16T01:36:44.293Z,2.78
2022-08-16T01:41:56.342Z,2.60
2022-08-16T01:46:58.936Z,2.57
2022-08-16T01:52:02.620Z,2.87
2022-08-16T01:57:06.605Z,2.95
2022-08-16T02:02:26.614Z,2.75
2022-08-16T02:07:30.695Z,2.50
2022-08-16T02:12:42.089Z,2.90
2022-08-16T02:17:54.395Z,2.72
2022-08-16T02:22:56.924Z,2.90
2022-08-16T02:27:59.135Z,3.42
2022-08-16T02:33:03.142Z,3.40
2022-08-16T02:38:08.842Z,3.20
2022-08-16T02:43:10.732Z,2.87
2022-08-16T02:48:29.002Z,3.40
2022-08-16T02:53:32.112Z,3.67
2022-08-16T02:58:33.570Z,3.47
2022-08-16T03:04:30.083Z,3.25
2022-08-16T03:08:57.956Z,3.05
2022-08-16T03:14:01.481Z,2.90
2022-08-16T03:19:08.893Z,3.00
2022-08-16T03:24:29.195Z,3.22
2022-08-16T03:29:32.481Z,3.23
2022-08-16T03:34:34.698Z,2.80
2022-08-16T03:39:42.834Z,3.53
2022-08-16T03:44:49.358Z,3.28
2022-08-16T03:49:52.280Z,3.50
2022-08-16T03:54:58.021Z,3.67
2022-08-16T04:00:00.539Z,3.60
2022-08-16T04:05:07.465Z,3.50
2022-08-16T04:10:36.304Z,3.80
2022-08-16T04:15:32.255Z,3.83
2022-08-16T04:20:37.019Z,3.23
2022-08-16T04:25:38.746Z,3.40
2022-08-16T04:30:41.961Z,3.28
2022-08-16T04:35:49.590Z,3.83
2022-08-16T04:40:51.356Z,4.07
2022-08-16T04:46:00.573Z,3.50
2022-08-16T04:51:11.508Z,3.60
2022-08-16T04:56:13.809Z,3.80
2022-08-16T05:01:18.709Z,3.58
2022-08-16T05:06:20.322Z,3.88
2022-08-16T05:11:41.623Z,3.57
2022-08-16T05:16:44.449Z,4.10
2022-08-16T05:21:48.428Z,3.80
2022-08-16T05:26:52.890Z,4.22
2022-08-16T05:31:54.167Z,4.10
2022-08-16T05:36:57.312Z,3.80
2022-08-16T05:42:00.128Z,4.30
2022-08-16T05:47:01.539Z,4.20
2022-08-16T05:52:02.986Z,4.35
2022-08-16T05:57:13.373Z,4.65
2022-08-16T06:02:15.113Z,4.47
2022-08-16T06:07:26.317Z,4.40
2022-08-16T06:12:29.234Z,4.80
2022-08-16T06:17:42.638Z,4.38
2022-08-16T06:22:47.595Z,4.30
2022-08-16T06:27:59.271Z,4.47
2022-08-16T06:33:03.761Z,4.93
2022-08-16T06:38:05.115Z,4.60
2022-08-16T06:43:06.631Z,4.78
2022-08-16T06:48:10.449Z,5.10
2022-08-16T06:53:11.743Z,4.87
2022-08-16T06:58:22.075Z,4.87
2022-08-16T07:03:28.043Z,5.22
2022-08-16T07:08:33.653Z,4.60
2022-08-16T07:19:01.696Z,5.35
2022-08-16T07:24:05.865Z,4.70
2022-08-16T07:29:07.553Z,5.00
2022-08-16T07:34:10.176Z,4.85
2022-08-16T07:39:12.504Z,4.72
2022-08-16T07:44:16.729Z,4.10
2022-08-16T07:49:18.256Z,4.70
2022-08-16T07:54:21.230Z,4.90
2022-08-16T07:59:45.743Z,4.68
2022-08-16T08:04:48.272Z,4.50
2022-08-16T08:09:50.713Z,5.15
2022-08-16T08:14:52.055Z,4.45
2022-08-16T08:19:53.680Z,4.40
2022-08-16T08:24:59.150Z,4.90
2022-08-16T08:30:49.071Z,4.90
2022-08-16T08:35:28.500Z,4.80
2022-08-16T08:40:30.109Z,5.30
2022-08-16T08:45:48.949Z,5.10
2022-08-16T08:50:52.843Z,4.82
2022-08-16T08:55:59.214Z,5.00
2022-08-16T09:01:01.583Z,5.32
2022-08-16T09:06:04.598Z,5.32
2022-08-16T09:11:07.470Z,5.80
2022-08-16T09:16:10.330Z,5.60
2022-08-16T09:21:12.010Z,5.47
2022-08-16T09:26:45.362Z,5.20
2022-08-16T09:31:41.004Z,5.07
2022-08-16T09:36:45.073Z,5.28
2022-08-16T09:41:53.736Z,4.40
2022-08-16T09:46:57.751Z,5.00
2022-08-16T09:51:59.287Z,4.78
2022-08-16T09:57:01.617Z,5.00
2022-08-16T10:02:22.993Z,5.10
2022-08-16T10:07:44.603Z,4.95
2022-08-16T10:13:07.404Z,5.10
2022-08-16T10:18:56.505Z,4.83
2022-08-16T10:23:30.850Z,4.70
2022-08-16T10:28:39.762Z,4.55
2022-08-16T10:33:41.874Z,4.75
2022-08-16T10:38:44.016Z,5.13
2022-08-16T10:43:45.341Z,4.78
2022-08-16T10:48:52.310Z,4.32
2022-08-16T10:53:53.711Z,4.63
2022-08-16T10:59:28.894Z,5.00
2022-08-16T11:09:43.968Z,4.03
2022-08-16T11:30:57.305Z,4.37
2022-08-16T11:41:20.754Z,4.70
2022-08-16T11:46:43.537Z,4.20
2022-08-16T11:51:44.304Z,3.90
2022-08-16T11:56:52.853Z,3.70
2022-08-16T12:02:00.036Z,3.90
2022-08-16T12:07:07.969Z,3.87
2022-08-16T12:12:10.454Z,4.20
2022-08-16T12:17:14.259Z,3.70
2022-08-16T12:22:19.188Z,4.33
2022-08-16T12:27:23.222Z,3.78
2022-08-16T12:32:37.400Z,3.75
2022-08-16T12:37:41.699Z,3.83
2022-08-16T12:42:52.999Z,3.75
2022-08-16T12:48:33.793Z,3.38
2022-08-16T12:53:36.009Z,3.60
2022-08-16T12:58:49.080Z,3.60
2022-08-16T13:04:11.281Z,3.67
2022-08-16T13:09:28.929Z,3.90
2022-08-16T13:14:33.547Z,3.40
2022-08-16T13:20:05.520Z,3.55
2022-08-16T13:24:57.388Z,3.67
2022-08-16T13:29:58.652Z,3.60
2022-08-16T13:34:59.974Z,3.70
2022-08-16T13:40:06.154Z,3.72
2022-08-16T13:45:15.663Z,3.80
2022-08-16T13:50:17.333Z,3.63
2022-08-16T13:55:32.989Z,3.95
2022-08-16T14:00:34.284Z,3.65
2022-08-16T14:05:36.340Z,4.00
2022-08-16T14:10:37.632Z,3.47
2022-08-16T14:15:41.878Z,3.70
2022-08-16T14:20:48.731Z,3.30
2022-08-16T14:25:53.779Z,3.78
2022-08-16T14:30:56.573Z,3.33
2022-08-16T14:35:58.729Z,3.43
2022-08-16T14:41:00.654Z,3.43
2022-08-16T14:46:02.018Z,3.33
2022-08-16T14:51:08.614Z,3.90
2022-08-16T14:56:17.401Z,3.20
2022-08-16T15:01:58.321Z,3.35
2022-08-16T15:06:52.953Z,3.40
2022-08-16T15:11:56.772Z,3.20
2022-08-16T15:16:58.961Z,3.47
2022-08-16T15:22:00.754Z,3.35
2022-08-16T15:27:06.102Z,3.40
2022-08-16T15:32:12.002Z,3.40
2022-08-16T15:37:42.411Z,3.35
2022-08-16T15:42:54.042Z,3.60
2022-08-16T15:47:56.679Z,3.50
2022-08-16T15:53:00.254Z,3.50
2022-08-16T15:58:35.710Z,3.78
2022-08-16T16:03:25.504Z,3.77
2022-08-16T16:08:27.446Z,3.38
2022-08-16T16:13:28.914Z,3.72
2022-08-16T16:18:32.666Z,3.40
2022-08-16T16:23:35.879Z,3.30
2022-08-16T16:29:08.167Z,3.45
2022-08-16T16:34:10.017Z,3.40
2022-08-16T16:39:12.474Z,3.40
2022-08-16T16:44:18.295Z,3.10
2022-08-16T16:49:33.943Z,3.40
2022-08-16T16:54:35.724Z,3.53
2022-08-16T16:59:37.055Z,3.60
2022-08-16T17:04:38.399Z,3.20
2022-08-16T17:09:40.928Z,3.50
2022-08-16T17:14:42.911Z,3.27
2022-08-16T17:19:44.266Z,3.40
2022-08-16T17:24:50.492Z,3.10
2022-08-16T17:29:54.065Z,3.30
2022-08-16T17:34:55.960Z,3.50
2022-08-16T17:40:03.863Z,3.50
2022-08-16T17:45:07.958Z,2.97
2022-08-16T17:50:09.904Z,3.22
2022-08-16T17:55:17.444Z,3.70
2022-08-16T18:00:20.597Z,3.83
2022-08-16T18:05:22.127Z,4.00
2022-08-16T18:10:32.895Z,3.67
2022-08-16T18:15:38.517Z,3.40
2022-08-16T18:20:58.580Z,3.80
2022-08-16T18:26:01.142Z,3.55
2022-08-16T18:31:05.479Z,3.50
2022-08-16T18:36:21.049Z,3.83
2022-08-16T18:41:24.290Z,3.85
2022-08-16T18:46:25.615Z,3.70
2022-08-16T18:51:27.041Z,3.63
2022-08-16T18:56:55.956Z,3.75
2022-08-16T19:01:51.004Z,3.70
2022-08-16T19:06:52.385Z,3.50
2022-08-16T19:11:53.847Z,3.83
2022-08-16T19:16:55.246Z,3.92
2022-08-16T19:21:56.969Z,4.20
2022-08-16T19:26:58.338Z,4.10
2022-08-16T19:31:59.867Z,3.72
2022-08-16T19:37:01.268Z,3.92
2022-08-16T19:42:09.870Z,3.70
2022-08-16T19:47:11.661Z,3.90
2022-08-16T19:52:24.168Z,4.25
2022-08-16T19:57:26.890Z,3.47
2022-08-16T20:02:36.136Z,3.72
2022-08-16T20:07:37.896Z,3.40
2022-08-16T20:12:39.949Z,3.70
2022-08-16T20:17:48.092Z,4.03
2022-08-16T20:22:53.986Z,3.67
2022-08-16T20:27:56.815Z,4.18
2022-08-16T20:32:58.338Z,3.70
2022-08-16T20:38:01.663Z,3.67
2022-08-16T20:43:08.661Z,3.75
2022-08-16T20:48:10.235Z,3.80
2022-08-16T20:53:11.515Z,3.90
2022-08-16T20:58:12.987Z,3.65
2022-08-16T21:03:14.373Z,3.70
2022-08-16T21:08:50.050Z,3.67
2022-08-16T21:13:42.083Z,4.07
2022-08-16T21:18:44.096Z,3.92
2022-08-16T21:23:45.425Z,3.70
2022-08-16T21:28:46.771Z,4.00
2022-08-16T21:33:55.765Z,3.95
2022-08-16T21:38:57.189Z,4.67
2022-08-16T21:43:58.480Z,3.47
2022-08-16T21:48:59.763Z,3.88
2022-08-16T21:54:01.981Z,4.20
2022-08-16T21:59:06.982Z,4.10
2022-08-16T22:04:37.067Z,3.97
2022-08-16T22:09:30.705Z,4.00
2022-08-16T22:14:32.038Z,4.57
2022-08-16T22:19:33.387Z,4.38
2022-08-16T22:24:34.706Z,4.65
2022-08-16T22:29:36.179Z,4.17
2022-08-16T22:34:40.842Z,4.05
2022-08-16T22:39:42.217Z,4.45
2022-08-16T22:44:46.372Z,4.40
2022-08-16T22:49:47.977Z,4.70
2022-08-16T22:54:49.396Z,4.63
2022-08-16T22:59:52.710Z,4.50
2022-08-16T23:04:54.946Z,4.23
2022-08-16T23:09:56.251Z,4.60
2022-08-16T23:15:02.634Z,4.45
2022-08-16T23:20:06.004Z,4.80
2022-08-16T23:25:13.665Z,4.63
2022-08-16T23:30:15.681Z,4.97
2022-08-16T23:35:19.099Z,4.13
2022-08-16T23:40:21.449Z,4.77
2022-08-16T23:45:33.386Z,4.72
2022-08-16T23:50:36.128Z,5.25
2022-08-16T23:55:38.924Z,4.70
